createdAt,value
2019-05-19T00:00:13.986Z,0.00
2019-05-19T00:01:13.736Z,0.00
2019-05-19T00:02:13.783Z,0.00
2019-05-19T00:03:13.596Z,0.00
2019-05-19T00:04:13.547Z,0.00
2019-05-19T00:05:13.413Z,0.00
2019-05-19T00:06:13.342Z,0.00
2019-05-19T00:07:13.269Z,0.00
2019-05-19T00:08:13.216Z,0.00
2019-05-19T00:09:16.376Z,0.00
2019-05-19T00:10:13.015Z,0.00
2019-05-19T00:11:12.928Z,0.00
2019-05-19T00:12:12.915Z,0.00
2019-05-19T00:13:12.760Z,0.00
2019-05-19T00:14:12.679Z,0.00
2019-05-19T00:15:12.699Z,0.00
2019-05-19T00:16:12.525Z,0.00
2019-05-19T00:17:12.547Z,0.00
2019-05-19T00:18:12.357Z,0.00
2019-05-19T00:19:25.775Z,0.00
2019-05-19T00:20:12.191Z,0.00
2019-05-19T00:21:12.118Z,0.00
2019-05-19T00:22:12.066Z,0.00
2019-05-19T00:23:11.949Z,0.00
2019-05-19T00:24:11.862Z,0.00
2019-05-19T00:25:12.877Z,0.00
2019-05-19T00:26:11.708Z,0.00
2019-05-19T00:27:11.689Z,0.00
2019-05-19T00:28:11.556Z,0.00
2019-05-19T00:29:11.574Z,0.00
2019-05-19T00:30:11.385Z,0.00
2019-05-19T00:31:11.377Z,0.00
2019-05-19T00:32:11.225Z,0.00
2019-05-19T00:33:11.189Z,0.00
2019-05-19T00:34:11.045Z,0.00
2019-05-19T00:35:10.996Z,0.00
2019-05-19T00:36:11.003Z,0.00
2019-05-19T00:37:10.826Z,0.00
2019-05-19T00:38:10.720Z,0.00
2019-05-19T00:39:10.715Z,0.00
2019-05-19T00:40:10.575Z,0.00
2019-05-19T00:41:10.480Z,0.00
2019-05-19T00:42:10.470Z,0.00
2019-05-19T00:43:10.316Z,0.00
2019-05-19T00:44:10.234Z,0.00
2019-05-19T00:45:10.245Z,0.00
2019-05-19T00:46:10.068Z,0.00
2019-05-19T00:47:09.998Z,0.00
2019-05-19T00:48:09.958Z,0.00
2019-05-19T00:49:09.827Z,0.00
2019-05-19T00:50:09.744Z,0.00
2019-05-19T00:51:09.773Z,0.00
2019-05-19T00:52:09.592Z,0.00
2019-05-19T00:53:09.635Z,0.00
2019-05-19T00:54:09.419Z,0.00
2019-05-19T00:55:09.396Z,0.00
2019-05-19T00:56:09.263Z,0.00
2019-05-19T00:57:09.242Z,0.00
2019-05-19T00:58:09.091Z,0.00
2019-05-19T00:59:09.116Z,0.00
2019-05-19T01:00:08.927Z,0.00
2019-05-19T01:01:08.851Z,0.00
2019-05-19T01:02:13.264Z,0.00
2019-05-19T01:03:08.679Z,0.00
2019-05-19T01:04:08.603Z,0.00
2019-05-19T01:05:08.541Z,0.00
2019-05-19T01:06:08.437Z,0.00
2019-05-19T01:07:08.469Z,0.00
2019-05-19T01:08:08.287Z,0.00
2019-05-19T01:09:08.265Z,0.00
2019-05-19T01:10:08.107Z,0.00
2019-05-19T01:11:08.027Z,0.00
2019-05-19T01:12:07.994Z,0.00
2019-05-19T01:13:07.876Z,0.00
2019-05-19T01:14:07.780Z,0.00
2019-05-19T01:15:08.720Z,0.00
2019-05-19T01:16:07.623Z,0.00
2019-05-19T01:17:07.599Z,0.00
2019-05-19T01:18:07.479Z,0.00
2019-05-19T01:19:07.414Z,0.00
2019-05-19T01:20:07.289Z,0.00
2019-05-19T01:21:07.221Z,0.00
2019-05-19T01:22:07.224Z,0.00
2019-05-19T01:23:07.061Z,0.00
2019-05-19T01:24:06.964Z,0.00
2019-05-19T01:25:06.944Z,0.00
2019-05-19T01:26:06.810Z,0.00
2019-05-19T01:27:06.726Z,0.00
2019-05-19T01:28:06.691Z,0.00
2019-05-19T01:29:06.558Z,0.00
2019-05-19T01:30:06.475Z,0.00
2019-05-19T01:31:06.471Z,0.00
2019-05-19T01:32:06.327Z,0.00
2019-05-19T01:33:06.313Z,0.00
2019-05-19T01:34:06.155Z,0.00
2019-05-19T01:35:06.062Z,0.00
2019-05-19T01:36:06.094Z,0.00
2019-05-19T01:37:05.902Z,0.00
2019-05-19T01:38:05.831Z,0.00
2019-05-19T01:39:12.774Z,0.00
2019-05-19T01:40:05.657Z,0.00
2019-05-19T01:41:05.580Z,0.00
2019-05-19T01:42:05.519Z,0.00
2019-05-19T01:43:05.434Z,0.00
2019-05-19T01:44:05.435Z,0.00
2019-05-19T01:45:05.254Z,0.00
2019-05-19T01:46:05.163Z,0.00
2019-05-19T01:47:05.146Z,0.00
2019-05-19T01:48:05.020Z,0.00
2019-05-19T01:49:04.923Z,0.00
2019-05-19T01:50:16.822Z,0.00
2019-05-19T01:51:04.762Z,0.00
2019-05-19T01:52:04.772Z,0.00
2019-05-19T01:53:04.607Z,0.00
2019-05-19T01:54:04.578Z,0.00
2019-05-19T01:55:04.432Z,0.00
2019-05-19T01:56:04.392Z,0.00
2019-05-19T01:57:04.269Z,0.00
2019-05-19T01:58:04.231Z,0.00
2019-05-19T01:59:04.126Z,0.00
2019-05-19T02:00:04.111Z,0.00
2019-05-19T02:01:03.946Z,0.00
2019-05-19T02:02:03.855Z,0.00
2019-05-19T02:03:05.804Z,0.00
2019-05-19T02:04:03.700Z,0.00
2019-05-19T02:05:03.627Z,0.00
2019-05-19T02:06:03.651Z,0.00
2019-05-19T02:07:03.452Z,0.00
2019-05-19T02:08:03.480Z,0.00
2019-05-19T02:09:03.287Z,0.00
2019-05-19T02:10:03.260Z,0.00
2019-05-19T02:11:03.124Z,0.00
2019-05-19T02:12:03.055Z,0.00
2019-05-19T02:13:05.169Z,0.00
2019-05-19T02:14:02.874Z,0.00
2019-05-19T02:15:02.840Z,0.00
2019-05-19T02:16:02.831Z,0.00
2019-05-19T02:17:02.632Z,0.00
2019-05-19T02:18:02.566Z,0.00
2019-05-19T02:19:02.612Z,0.00
2019-05-19T02:20:02.414Z,0.00
2019-05-19T02:21:02.438Z,0.00
2019-05-19T02:22:03.243Z,0.00
2019-05-19T02:23:02.164Z,0.00
2019-05-19T02:24:02.172Z,0.00
2019-05-19T02:25:01.977Z,0.00
2019-05-19T02:26:01.888Z,0.00
2019-05-19T02:27:01.844Z,0.00
2019-05-19T02:28:01.747Z,0.00
2019-05-19T02:29:01.650Z,0.00
2019-05-19T02:30:01.718Z,0.00
2019-05-19T02:31:01.481Z,0.00
2019-05-19T02:32:01.408Z,0.00
2019-05-19T02:33:01.409Z,0.00
2019-05-19T02:34:01.237Z,0.00
2019-05-19T02:35:01.165Z,0.00
2019-05-19T02:36:01.189Z,0.00
2019-05-19T02:37:00.989Z,0.00
2019-05-19T02:38:01.030Z,0.00
2019-05-19T02:39:00.830Z,0.00
2019-05-19T02:40:00.806Z,0.00
2019-05-19T02:41:00.672Z,0.00
2019-05-19T02:42:00.614Z,0.00
2019-05-19T02:43:00.516Z,0.00
2019-05-19T02:44:00.528Z,0.00
2019-05-19T02:45:00.333Z,0.00
2019-05-19T02:46:00.257Z,0.00
2019-05-19T02:47:00.241Z,0.00
2019-05-19T02:48:00.116Z,0.00
2019-05-19T02:49:00.009Z,0.00
2019-05-19T02:49:59.960Z,0.00
2019-05-19T02:50:59.837Z,0.00
2019-05-19T02:51:59.758Z,0.00
2019-05-19T02:52:59.774Z,0.00
2019-05-19T02:53:59.615Z,0.00
2019-05-19T02:54:59.516Z,4.00
2019-05-19T02:55:59.480Z,4.00
2019-05-19T02:56:59.351Z,4.00
2019-05-19T02:57:59.298Z,0.00
2019-05-19T02:58:59.203Z,4.00
2019-05-19T02:59:59.201Z,4.00
2019-05-19T03:00:59.022Z,4.00
2019-05-19T03:01:58.940Z,4.00
2019-05-19T03:02:58.910Z,4.00
2019-05-19T03:03:58.786Z,8.00
2019-05-19T03:04:58.693Z,8.00
2019-05-19T03:05:58.628Z,8.00
2019-05-19T03:06:58.532Z,8.00
2019-05-19T03:07:58.540Z,12.00
2019-05-19T03:08:58.398Z,12.00
2019-05-19T03:10:00.298Z,16.00
2019-05-19T03:10:58.199Z,16.00
2019-05-19T03:11:58.121Z,20.00
2019-05-19T03:12:58.060Z,24.00
2019-05-19T03:13:57.969Z,24.00
2019-05-19T03:14:57.869Z,28.00
2019-05-19T03:15:58.800Z,36.00
2019-05-19T03:16:57.708Z,40.00
2019-05-19T03:17:57.686Z,44.00
2019-05-19T03:18:57.566Z,48.00
2019-05-19T03:19:57.497Z,56.00
2019-05-19T03:21:10.322Z,64.00
2019-05-19T03:22:04.386Z,72.00
2019-05-19T03:22:57.210Z,80.00
2019-05-19T03:23:57.250Z,92.00
2019-05-19T03:24:57.051Z,100.00
2019-05-19T03:25:57.027Z,112.00
2019-05-19T03:26:56.884Z,128.00
2019-05-19T03:28:03.799Z,140.00
2019-05-19T03:28:56.735Z,152.00
2019-05-19T03:29:56.748Z,168.00
2019-05-19T03:30:56.553Z,184.00
2019-05-19T03:31:56.558Z,204.00
2019-05-19T03:32:56.404Z,224.00
2019-05-19T03:33:56.401Z,244.00
2019-05-19T03:34:56.228Z,268.00
2019-05-19T03:35:56.178Z,300.00
2019-05-19T03:36:56.062Z,328.00
2019-05-19T03:37:56.087Z,364.00
2019-05-19T03:38:55.918Z,408.00
2019-05-19T03:39:56.920Z,448.00
2019-05-19T03:40:55.730Z,496.00
2019-05-19T03:41:55.646Z,544.00
2019-05-19T03:42:55.613Z,596.00
2019-05-19T03:43:55.506Z,644.00
2019-05-19T03:44:55.405Z,696.00
2019-05-19T03:45:55.422Z,752.00
2019-05-19T03:46:55.242Z,808.00
2019-05-19T03:47:55.233Z,868.00
2019-05-19T03:48:55.083Z,932.00
2019-05-19T03:49:55.040Z,992.00
2019-05-19T03:50:54.921Z,1060.00
2019-05-19T03:51:54.829Z,1128.00
2019-05-19T03:52:55.785Z,1192.00
2019-05-19T03:53:54.679Z,1268.00
2019-05-19T03:54:54.588Z,1340.00
2019-05-19T03:55:54.588Z,1404.00
2019-05-19T03:56:54.415Z,1476.00
2019-05-19T03:57:54.334Z,1548.00
2019-05-19T03:58:54.322Z,1620.00
2019-05-19T03:59:54.166Z,1704.00
2019-05-19T04:00:54.092Z,1796.00
2019-05-19T04:01:54.096Z,1892.00
2019-05-19T04:02:53.923Z,2008.00
2019-05-19T04:03:53.840Z,2128.00
2019-05-19T04:04:53.842Z,2260.00
2019-05-19T04:05:53.673Z,2388.00
2019-05-19T04:06:53.592Z,2528.00
2019-05-19T04:07:53.578Z,2672.00
2019-05-19T04:08:53.424Z,2816.00
2019-05-19T04:09:53.485Z,2972.00
2019-05-19T04:10:53.266Z,3128.00
2019-05-19T04:11:53.181Z,3272.00
2019-05-19T04:12:53.153Z,3424.00
2019-05-19T04:13:53.015Z,3572.00
2019-05-19T04:14:52.972Z,3736.00
2019-05-19T04:15:52.863Z,3896.00
2019-05-19T04:16:52.795Z,4044.00
2019-05-19T04:17:52.777Z,4184.00
2019-05-19T04:18:52.606Z,4312.00
2019-05-19T04:19:52.554Z,4436.00
2019-05-19T04:20:52.443Z,4564.00
2019-05-19T04:21:52.368Z,4692.00
2019-05-19T04:22:52.324Z,4820.00
2019-05-19T04:23:52.196Z,4968.00
2019-05-19T04:24:52.123Z,5116.00
2019-05-19T04:25:52.141Z,5264.00
2019-05-19T04:26:51.947Z,5424.00
2019-05-19T04:27:51.865Z,5588.00
2019-05-19T04:28:58.797Z,5752.00
2019-05-19T04:29:51.721Z,5912.00
2019-05-19T04:30:51.618Z,6072.00
2019-05-19T04:31:51.649Z,6244.00
2019-05-19T04:32:51.462Z,6416.00
2019-05-19T04:33:51.455Z,6552.00
2019-05-19T04:34:51.306Z,6716.00
2019-05-19T04:35:51.262Z,6808.00
2019-05-19T04:36:51.137Z,6740.00
2019-05-19T04:37:51.049Z,6732.00
2019-05-19T04:38:51.083Z,6708.00
2019-05-19T04:39:50.900Z,6684.00
2019-05-19T04:40:50.805Z,6668.00
2019-05-19T04:41:50.795Z,6688.00
2019-05-19T04:42:50.639Z,6672.00
2019-05-19T04:43:50.564Z,6676.00
2019-05-19T04:44:50.545Z,6696.00
2019-05-19T04:45:50.399Z,6720.00
2019-05-19T04:46:50.320Z,6756.00
2019-05-19T04:47:50.331Z,6784.00
2019-05-19T04:48:50.148Z,6816.00
2019-05-19T04:49:50.165Z,6844.00
2019-05-19T04:50:49.992Z,6872.00
2019-05-19T04:52:05.515Z,6924.00
2019-05-19T04:52:56.819Z,6988.00
2019-05-19T04:53:49.752Z,7104.00
2019-05-19T04:54:49.671Z,7304.00
2019-05-19T04:55:49.672Z,7548.00
2019-05-19T04:56:49.503Z,7872.00
2019-05-19T04:57:49.419Z,8196.00
2019-05-19T04:58:49.396Z,8472.00
2019-05-19T04:59:49.268Z,8876.00
2019-05-19T05:00:49.289Z,8948.00
2019-05-19T05:01:49.089Z,8780.00
2019-05-19T05:02:49.012Z,8732.00
2019-05-19T05:03:48.998Z,8396.00
2019-05-19T05:04:48.864Z,8120.00
2019-05-19T05:05:48.767Z,8048.00
2019-05-19T05:06:48.715Z,8076.00
2019-05-19T05:07:48.607Z,8140.00
2019-05-19T05:08:48.626Z,8180.00
2019-05-19T05:09:48.453Z,8268.00
2019-05-19T05:10:48.438Z,8372.00
2019-05-19T05:11:48.279Z,8460.00
2019-05-19T05:12:48.244Z,8560.00
2019-05-19T05:13:48.122Z,8684.00
2019-05-19T05:14:48.088Z,8812.00
2019-05-19T05:15:47.955Z,8924.00
2019-05-19T05:16:47.878Z,9052.00
2019-05-19T05:17:47.816Z,9188.00
2019-05-19T05:18:48.047Z,9332.00
2019-05-19T05:19:47.641Z,9528.00
2019-05-19T05:20:47.584Z,9680.00
2019-05-19T05:21:47.464Z,9820.00
2019-05-19T05:22:47.384Z,10040.00
2019-05-19T05:23:48.322Z,10264.00
2019-05-19T05:24:47.238Z,10524.00
2019-05-19T05:25:47.206Z,10756.00
2019-05-19T05:26:47.062Z,10912.00
2019-05-19T05:27:47.024Z,11084.00
2019-05-19T05:28:46.892Z,11316.00
2019-05-19T05:29:50.347Z,11512.00
2019-05-19T05:30:46.737Z,11748.00
2019-05-19T05:31:46.655Z,11996.00
2019-05-19T05:32:46.647Z,12116.00
2019-05-19T05:33:46.491Z,12184.00
2019-05-19T05:34:46.487Z,12336.00
2019-05-19T05:35:46.336Z,12524.00
2019-05-19T05:36:46.369Z,12776.00
2019-05-19T05:37:46.392Z,12868.00
2019-05-19T05:38:46.177Z,13168.00
2019-05-19T05:39:46.029Z,13564.00
2019-05-19T05:40:45.981Z,13852.00
2019-05-19T05:41:45.842Z,13980.00
2019-05-19T05:42:45.788Z,14008.00
2019-05-19T05:43:45.687Z,14136.00
2019-05-19T05:44:45.626Z,14632.00
2019-05-19T05:45:45.533Z,14684.00
2019-05-19T05:46:45.506Z,14580.00
2019-05-19T05:47:45.361Z,14912.00
2019-05-19T05:48:45.314Z,15044.00
2019-05-19T05:49:45.219Z,15180.00
2019-05-19T05:50:45.229Z,15688.00
2019-05-19T05:51:45.041Z,15784.00
2019-05-19T05:52:44.959Z,16132.00
2019-05-19T05:53:44.940Z,16388.00
2019-05-19T05:54:44.814Z,16736.00
2019-05-19T05:55:44.712Z,17216.00
2019-05-19T05:56:44.654Z,17760.00
2019-05-19T05:57:44.562Z,18208.00
2019-05-19T05:58:44.482Z,18720.00
2019-05-19T05:59:44.412Z,19200.00
2019-05-19T06:00:51.338Z,20320.00
2019-05-19T06:01:44.239Z,20896.00
2019-05-19T06:02:44.154Z,21792.00
2019-05-19T06:03:44.072Z,22752.00
2019-05-19T06:04:44.037Z,23744.00
2019-05-19T06:05:43.917Z,25344.00
2019-05-19T06:06:45.779Z,26528.00
2019-05-19T06:07:43.814Z,27296.00
2019-05-19T06:08:43.683Z,28352.00
2019-05-19T06:09:43.662Z,29184.00
2019-05-19T06:10:43.519Z,29728.00
2019-05-19T06:11:43.531Z,30400.00
2019-05-19T06:12:43.360Z,30112.00
2019-05-19T06:13:43.282Z,30784.00
2019-05-19T06:14:43.245Z,30016.00
2019-05-19T06:15:43.717Z,30912.00
2019-05-19T06:16:43.040Z,30528.00
2019-05-19T06:17:43.094Z,30752.00
2019-05-19T06:18:42.888Z,30592.00
2019-05-19T06:19:42.802Z,31264.00
2019-05-19T06:20:42.808Z,30976.00
2019-05-19T06:21:42.652Z,30976.00
2019-05-19T06:22:55.752Z,32864.00
2019-05-19T06:23:42.491Z,31552.00
2019-05-19T06:24:42.493Z,32352.00
2019-05-19T06:25:42.351Z,31584.00
2019-05-19T06:26:42.308Z,29280.00
2019-05-19T06:27:42.192Z,31968.00
2019-05-19T06:28:42.109Z,33280.00
2019-05-19T06:29:42.119Z,33536.00
2019-05-19T06:30:41.986Z,32736.00
2019-05-19T06:31:41.879Z,29408.00
2019-05-19T06:32:41.832Z,32864.00
2019-05-19T06:33:41.722Z,33632.00
2019-05-19T06:34:41.644Z,35424.00
2019-05-19T06:35:41.679Z,33632.00
2019-05-19T06:36:41.498Z,33952.00
2019-05-19T06:37:41.445Z,33408.00
2019-05-19T06:38:41.368Z,36096.00
2019-05-19T06:39:41.264Z,35936.00
2019-05-19T06:40:41.210Z,33152.00
2019-05-19T06:41:41.176Z,31008.00
2019-05-19T06:42:41.031Z,30048.00
2019-05-19T06:43:40.988Z,30784.00
2019-05-19T06:44:40.881Z,33184.00
2019-05-19T06:45:41.852Z,34080.00
2019-05-19T06:46:40.731Z,34432.00
2019-05-19T06:47:40.651Z,32128.00
2019-05-19T06:48:40.611Z,34496.00
2019-05-19T06:49:40.507Z,30528.00
2019-05-19T06:50:40.971Z,33440.00
2019-05-19T06:51:49.338Z,32704.00
2019-05-19T06:52:40.277Z,34048.00
2019-05-19T06:53:40.197Z,34688.00
2019-05-19T06:54:40.144Z,34656.00
2019-05-19T06:55:40.060Z,34848.00
2019-05-19T06:56:40.054Z,34784.00
2019-05-19T06:57:39.896Z,35168.00
2019-05-19T06:58:39.864Z,35104.00
2019-05-19T06:59:39.737Z,31136.00
2019-05-19T07:00:39.723Z,28928.00
2019-05-19T07:01:39.586Z,28800.00
2019-05-19T07:02:39.581Z,27776.00
2019-05-19T07:03:39.435Z,27968.00
2019-05-19T07:04:39.363Z,29632.00
2019-05-19T07:05:39.339Z,30848.00
2019-05-19T07:06:39.234Z,34176.00
2019-05-19T07:07:39.126Z,35872.00
2019-05-19T07:08:39.110Z,35776.00
2019-05-19T07:09:38.986Z,39552.00
2019-05-19T07:10:43.357Z,40160.00
2019-05-19T07:11:38.829Z,36704.00
2019-05-19T07:12:38.833Z,34304.00
2019-05-19T07:13:38.671Z,31424.00
2019-05-19T07:14:38.639Z,29568.00
2019-05-19T07:15:38.537Z,27712.00
2019-05-19T07:16:38.554Z,27808.00
2019-05-19T07:17:38.372Z,27872.00
2019-05-19T07:18:38.312Z,28032.00
2019-05-19T07:19:38.265Z,27360.00
2019-05-19T07:20:38.160Z,26496.00
2019-05-19T07:21:38.063Z,25760.00
2019-05-19T07:22:38.079Z,26144.00
2019-05-19T07:23:37.911Z,26016.00
2019-05-19T07:24:37.841Z,25824.00
2019-05-19T07:25:39.755Z,25920.00
2019-05-19T07:26:37.715Z,26144.00
2019-05-19T07:27:37.607Z,26464.00
2019-05-19T07:28:37.611Z,26912.00
2019-05-19T07:29:37.477Z,27328.00
2019-05-19T07:30:42.884Z,27744.00
2019-05-19T07:31:37.297Z,28224.00
2019-05-19T07:32:37.330Z,29088.00
2019-05-19T07:33:37.159Z,30592.00
2019-05-19T07:34:37.064Z,31200.00
2019-05-19T07:35:37.081Z,32096.00
2019-05-19T07:36:36.918Z,33280.00
2019-05-19T07:37:36.844Z,34496.00
2019-05-19T07:38:36.873Z,35328.00
2019-05-19T07:39:36.686Z,36128.00
2019-05-19T07:40:36.714Z,36704.00
2019-05-19T07:41:36.532Z,37952.00
2019-05-19T07:42:36.452Z,38400.00
2019-05-19T07:43:44.369Z,40064.00
2019-05-19T07:44:36.333Z,41664.00
2019-05-19T07:45:36.232Z,43552.00
2019-05-19T07:46:36.203Z,44224.00
2019-05-19T07:47:36.062Z,43072.00
2019-05-19T07:48:35.993Z,44704.00
2019-05-19T07:49:36.018Z,44672.00
2019-05-19T07:50:38.083Z,44256.00
2019-05-19T07:51:35.772Z,43808.00
2019-05-19T07:52:35.732Z,43840.00
2019-05-19T07:53:43.008Z,44288.00
2019-05-19T07:54:35.545Z,44448.00
2019-05-19T07:55:35.538Z,44864.00
2019-05-19T07:56:35.381Z,44128.00
2019-05-19T07:57:35.361Z,42560.00
2019-05-19T07:58:35.324Z,40960.00
2019-05-19T07:59:35.157Z,42496.00
2019-05-19T08:00:35.163Z,41568.00
2019-05-19T08:01:35.082Z,40192.00
2019-05-19T08:02:34.925Z,39040.00
2019-05-19T08:03:34.946Z,39360.00
2019-05-19T08:04:34.778Z,40032.00
2019-05-19T08:05:34.712Z,41824.00
2019-05-19T08:06:34.763Z,42464.00
2019-05-19T08:07:34.559Z,47072.00
2019-05-19T08:08:34.481Z,50944.00
2019-05-19T08:09:34.625Z,51872.00
2019-05-19T08:10:34.347Z,52064.00
2019-05-19T08:11:34.263Z,51808.00
2019-05-19T08:12:34.233Z,53536.00
2019-05-19T08:13:34.105Z,50496.00
2019-05-19T08:14:34.144Z,52352.00
2019-05-19T08:15:33.969Z,54176.00
2019-05-19T08:16:33.889Z,54656.00
2019-05-19T08:17:33.809Z,57728.00
2019-05-19T08:18:33.738Z,59040.00
2019-05-19T08:19:33.769Z,61824.00
2019-05-19T08:20:33.601Z,60864.00
2019-05-19T08:21:33.517Z,60384.00
2019-05-19T08:22:33.489Z,62112.00
2019-05-19T08:23:33.373Z,66624.00
2019-05-19T08:24:33.297Z,72672.00
2019-05-19T08:25:33.328Z,74656.00
2019-05-19T08:26:33.154Z,75680.00
2019-05-19T08:27:33.082Z,76480.00
2019-05-19T08:28:33.110Z,80832.00
2019-05-19T08:29:32.950Z,82944.00
2019-05-19T08:30:33.302Z,85984.00
2019-05-19T08:31:32.878Z,76576.00
2019-05-19T08:32:32.726Z,87808.00
2019-05-19T08:33:32.672Z,91232.00
2019-05-19T08:34:32.693Z,94784.00
2019-05-19T08:35:32.618Z,95808.00
2019-05-19T08:36:32.462Z,98272.00
2019-05-19T08:37:32.523Z,100512.00
2019-05-19T08:38:32.317Z,94624.00
2019-05-19T08:39:32.326Z,96416.00
2019-05-19T08:40:32.217Z,97024.00
2019-05-19T08:41:32.157Z,98336.00
2019-05-19T08:42:32.044Z,97696.00
2019-05-19T08:43:31.979Z,98304.00
2019-05-19T08:44:31.940Z,96704.00
2019-05-19T08:45:31.844Z,96576.00
2019-05-19T08:46:32.187Z,94016.00
2019-05-19T08:47:31.756Z,96416.00
2019-05-19T08:48:31.643Z,97664.00
2019-05-19T08:49:31.599Z,93824.00
2019-05-19T08:50:31.636Z,98752.00
2019-05-19T08:51:31.454Z,98944.00
2019-05-19T08:52:31.376Z,100608.00
2019-05-19T08:53:31.385Z,96128.00
2019-05-19T08:54:31.242Z,95904.00
2019-05-19T08:55:31.198Z,95008.00
2019-05-19T08:56:31.130Z,82560.00
2019-05-19T08:57:31.209Z,93184.00
2019-05-19T08:58:30.986Z,90240.00
2019-05-19T08:59:30.921Z,98272.00
2019-05-19T09:00:34.923Z,103200.00
2019-05-19T09:01:30.814Z,103456.00
2019-05-19T09:02:30.725Z,102112.00
2019-05-19T09:03:30.838Z,102336.00
2019-05-19T09:04:30.594Z,103840.00
2019-05-19T09:05:30.658Z,104864.00
2019-05-19T09:06:30.476Z,97216.00
2019-05-19T09:07:30.454Z,97632.00
2019-05-19T09:08:30.336Z,101024.00
2019-05-19T09:09:30.476Z,103744.00
2019-05-19T09:10:30.215Z,99648.00
2019-05-19T09:11:30.309Z,101888.00
2019-05-19T09:12:30.079Z,107744.00
2019-05-19T09:13:30.013Z,108320.00
2019-05-19T09:14:30.152Z,107520.00
2019-05-19T09:15:29.888Z,106560.00
2019-05-19T09:16:29.840Z,104256.00
2019-05-19T09:17:37.594Z,93152.00
2019-05-19T09:18:29.705Z,98752.00
2019-05-19T09:19:29.783Z,112704.00
2019-05-19T09:20:29.580Z,104544.00
2019-05-19T09:21:29.635Z,103232.00
2019-05-19T09:22:29.445Z,107136.00
2019-05-19T09:23:29.602Z,106272.00
2019-05-19T09:24:30.977Z,110816.00
2019-05-19T09:25:29.261Z,104000.00
2019-05-19T09:26:29.455Z,96320.00
2019-05-19T09:27:29.135Z,102048.00
2019-05-19T09:28:29.080Z,100896.00
2019-05-19T09:29:29.026Z,97408.00
2019-05-19T09:30:28.943Z,94176.00
2019-05-19T09:31:28.891Z,94496.00
2019-05-19T09:32:28.984Z,92256.00
2019-05-19T09:33:28.760Z,92256.00
2019-05-19T09:34:28.691Z,95840.00
2019-05-19T09:35:28.641Z,99936.00
2019-05-19T09:36:28.588Z,100288.00
2019-05-19T09:37:28.504Z,103136.00
2019-05-19T09:38:28.459Z,105856.00
2019-05-19T09:39:28.379Z,106944.00
2019-05-19T09:40:28.321Z,105088.00
2019-05-19T09:41:28.263Z,109600.00
2019-05-19T09:42:28.193Z,108768.00
2019-05-19T09:43:28.123Z,109536.00
2019-05-19T09:44:28.055Z,109120.00
2019-05-19T09:45:27.997Z,104544.00
2019-05-19T09:46:27.943Z,100416.00
2019-05-19T09:47:27.869Z,109568.00
2019-05-19T09:48:27.808Z,112864.00
2019-05-19T09:49:27.738Z,109568.00
2019-05-19T09:50:27.678Z,109216.00
2019-05-19T09:51:27.632Z,101536.00
2019-05-19T09:52:27.550Z,100800.00
2019-05-19T09:53:27.481Z,101632.00
2019-05-19T09:54:27.443Z,101056.00
2019-05-19T09:55:27.361Z,101248.00
2019-05-19T09:56:27.308Z,92064.00
2019-05-19T09:57:27.235Z,92128.00
2019-05-19T09:58:27.167Z,94656.00
2019-05-19T09:59:27.100Z,91136.00
2019-05-19T10:00:27.045Z,79392.00
2019-05-19T10:01:26.993Z,89408.00
2019-05-19T10:02:26.914Z,81920.00
2019-05-19T10:03:26.838Z,99200.00
2019-05-19T10:04:26.786Z,95456.00
2019-05-19T10:05:26.725Z,103232.00
2019-05-19T10:06:26.662Z,104224.00
2019-05-19T10:07:26.580Z,107296.00
2019-05-19T10:08:26.523Z,102432.00
2019-05-19T10:09:26.451Z,101088.00
2019-05-19T10:10:26.397Z,101216.00
2019-05-19T10:11:26.339Z,104704.00
2019-05-19T10:12:26.260Z,98880.00
2019-05-19T10:13:26.193Z,95104.00
2019-05-19T10:14:26.134Z,95680.00
2019-05-19T10:15:26.055Z,96224.00
2019-05-19T10:16:26.025Z,96832.00
2019-05-19T10:17:25.930Z,94816.00
2019-05-19T10:18:25.875Z,92608.00
2019-05-19T10:19:25.805Z,94368.00
2019-05-19T10:20:25.754Z,84832.00
2019-05-19T10:21:25.738Z,80128.00
2019-05-19T10:22:25.612Z,87424.00
2019-05-19T10:23:25.539Z,87392.00
2019-05-19T10:24:25.488Z,73472.00
2019-05-19T10:25:25.408Z,72768.00
2019-05-19T10:26:25.346Z,69312.00
2019-05-19T10:27:25.292Z,76640.00
2019-05-19T10:28:25.213Z,81504.00
2019-05-19T10:29:25.167Z,88448.00
2019-05-19T10:30:25.085Z,88992.00
2019-05-19T10:31:25.018Z,89984.00
2019-05-19T10:32:24.964Z,91392.00
2019-05-19T10:33:24.878Z,89344.00
2019-05-19T10:34:24.809Z,91008.00
2019-05-19T10:35:24.751Z,89856.00
2019-05-19T10:36:24.676Z,91904.00
2019-05-19T10:37:24.626Z,93152.00
2019-05-19T10:38:24.552Z,95808.00
2019-05-19T10:39:24.477Z,97344.00
2019-05-19T10:40:24.418Z,96992.00
2019-05-19T10:41:24.337Z,96992.00
2019-05-19T10:42:24.291Z,95136.00
2019-05-19T10:43:24.211Z,94368.00
2019-05-19T10:44:24.139Z,91840.00
2019-05-19T10:45:24.082Z,86432.00
2019-05-19T10:46:24.002Z,74080.00
2019-05-19T10:47:23.948Z,72320.00
2019-05-19T10:48:23.880Z,72512.00
2019-05-19T10:49:23.815Z,78880.00
2019-05-19T10:50:23.748Z,74752.00
2019-05-19T10:51:23.666Z,74432.00
2019-05-19T10:52:23.619Z,76288.00
2019-05-19T10:53:23.523Z,78528.00
2019-05-19T10:54:23.462Z,78560.00
2019-05-19T10:55:35.607Z,85376.00
2019-05-19T10:56:23.324Z,88896.00
2019-05-19T10:57:23.296Z,87424.00
2019-05-19T10:58:23.195Z,90368.00
2019-05-19T10:59:23.114Z,96576.00
2019-05-19T11:00:23.062Z,98080.00
2019-05-19T11:01:22.980Z,97952.00
2019-05-19T11:02:22.931Z,98592.00
2019-05-19T11:03:22.846Z,99392.00
2019-05-19T11:04:22.778Z,98176.00
2019-05-19T11:05:22.704Z,104704.00
2019-05-19T11:06:22.644Z,103296.00
2019-05-19T11:07:22.592Z,100096.00
2019-05-19T11:08:22.497Z,99904.00
2019-05-19T11:09:22.448Z,97504.00
2019-05-19T11:10:22.381Z,97472.00
2019-05-19T11:11:22.297Z,105536.00
2019-05-19T11:12:22.252Z,105472.00
2019-05-19T11:13:22.173Z,106880.00
2019-05-19T11:14:22.097Z,107232.00
2019-05-19T11:15:22.036Z,106688.00
2019-05-19T11:16:21.997Z,100416.00
2019-05-19T11:17:21.961Z,100288.00
2019-05-19T11:18:21.825Z,103168.00
2019-05-19T11:19:21.757Z,97664.00
2019-05-19T11:20:21.696Z,86752.00
2019-05-19T11:21:21.637Z,92960.00
2019-05-19T11:22:21.575Z,95520.00
2019-05-19T11:23:21.496Z,104576.00
2019-05-19T11:24:21.466Z,104800.00
2019-05-19T11:25:33.507Z,111200.00
2019-05-19T11:26:21.288Z,113248.00
2019-05-19T11:27:21.245Z,110784.00
2019-05-19T11:28:21.164Z,93472.00
2019-05-19T11:29:21.101Z,109728.00
2019-05-19T11:30:21.023Z,111872.00
2019-05-19T11:31:20.964Z,111776.00
2019-05-19T11:32:20.912Z,116544.00
2019-05-19T11:33:20.843Z,122080.00
2019-05-19T11:34:20.776Z,132416.00
2019-05-19T11:35:20.710Z,138912.00
2019-05-19T11:36:20.638Z,138112.00
2019-05-19T11:37:20.590Z,128608.00
2019-05-19T11:38:20.500Z,113024.00
2019-05-19T11:39:20.448Z,111136.00
2019-05-19T11:40:20.379Z,105376.00
2019-05-19T11:41:20.317Z,84128.00
2019-05-19T11:42:20.271Z,68032.00
2019-05-19T11:43:20.185Z,48128.00
2019-05-19T11:44:20.119Z,52512.00
2019-05-19T11:45:20.085Z,44256.00
2019-05-19T11:46:19.989Z,42144.00
2019-05-19T11:47:19.945Z,45664.00
2019-05-19T11:48:19.845Z,50560.00
2019-05-19T11:49:19.779Z,55968.00
2019-05-19T11:50:19.725Z,97696.00
2019-05-19T11:51:19.646Z,108800.00
2019-05-19T11:52:19.594Z,101792.00
2019-05-19T11:53:19.517Z,99712.00
2019-05-19T11:54:19.447Z,98976.00
2019-05-19T11:55:19.378Z,101920.00
2019-05-19T11:56:19.312Z,98144.00
2019-05-19T11:57:19.256Z,99744.00
2019-05-19T11:58:19.195Z,96032.00
2019-05-19T11:59:19.108Z,88096.00
2019-05-19T12:00:19.034Z,87936.00
2019-05-19T12:01:18.973Z,95616.00
2019-05-19T12:02:18.916Z,108512.00
2019-05-19T12:03:18.844Z,107648.00
2019-05-19T12:04:18.761Z,115040.00
2019-05-19T12:05:18.690Z,118944.00
2019-05-19T12:06:18.648Z,121568.00
2019-05-19T12:07:18.587Z,115072.00
2019-05-19T12:08:18.500Z,118464.00